Tri-State, Milton J. Ferguson Field Huntington US
ICAO: KHTS
IATA: HTS
Category: Large
Scheduled Services: Yes

Elevation: 828 ft
TransAlt. 18000 ft.

Airport Communications:
HUNTINGTON APP/DEP:119.75
ATIS:125.2
CLNC DEL:118.05
GND:121.9
ELKINS RDO:122.2
HUNTINGTON TWR:118.5
UNICOM:122.95

KHTS Zoom In..

If Map Doesn't Load, Click Here

Runways:

(A) RW 12 length 7017 ft width 150 ft
ILS 109.90 / hdg 118

(B) RW 30 length 7017 ft width 150 ft
ILS 108.70 / hdg 298

Location; KHTS
Day. 23 / Time. 21.51 Zulu
* Altimeter: 30.08
* Temperature: 18° c. 64.4°f.
* Wind from: 040° Speed 04 kn.
Dewpoint: 17° c.
Visibility: 10 Statute Miles.
Clouds: Overcast 400 ft.

KHTS 232151Z 04004KT 10SM OVC004 18/17 A3008 RMK AO2 RAE33 CIG 002V006 SLP183 P0002 T01780167


Wind From 040°
Speed 04 kn.

 
 
jpsmedia.com for Web Design worldairports.se 2018   terms of use